createdAt,value
2018-03-09T00:00:54.686Z,2.83
2018-03-09T00:03:22.820Z,2.70
2018-03-09T00:05:51.809Z,6.68
2018-03-09T00:08:20.705Z,2.35
2018-03-09T00:10:48.830Z,2.55
2018-03-09T00:13:16.951Z,2.87
2018-03-09T00:15:45.828Z,1.80
2018-03-09T00:18:13.939Z,1.17
2018-03-09T00:20:42.047Z,4.07
2018-03-09T00:23:10.300Z,2.58
2018-03-09T00:25:38.381Z,4.72
2018-03-09T00:28:06.632Z,2.60
2018-03-09T00:30:34.802Z,1.30
2018-03-09T00:33:03.693Z,4.40
2018-03-09T00:35:31.796Z,4.47
2018-03-09T00:37:59.917Z,1.48
2018-03-09T00:40:28.107Z,8.15
2018-03-09T00:42:56.968Z,1.60
2018-03-09T00:45:25.857Z,2.72
2018-03-09T00:47:54.718Z,2.30
2018-03-09T00:50:22.821Z,1.45
2018-03-09T00:52:50.974Z,1.00
2018-03-09T00:55:19.872Z,1.02
2018-03-09T00:57:48.788Z,2.05
2018-03-09T01:00:16.928Z,3.08
2018-03-09T01:02:45.855Z,2.03
2018-03-09T01:05:14.810Z,1.70
2018-03-09T01:07:43.737Z,1.73
2018-03-09T01:10:12.727Z,1.85
2018-03-09T01:12:41.578Z,2.03
2018-03-09T01:15:10.596Z,1.45
2018-03-09T01:17:38.781Z,2.15
2018-03-09T01:20:07.668Z,1.60
2018-03-09T01:22:35.841Z,2.20
2018-03-09T01:25:03.928Z,2.28
2018-03-09T01:27:32.083Z,1.30
2018-03-09T01:30:01.153Z,1.20
2018-03-09T01:32:30.068Z,1.03
2018-03-09T01:34:58.237Z,1.70
2018-03-09T01:37:27.107Z,1.48
2018-03-09T01:39:55.973Z,1.75
2018-03-09T01:42:24.840Z,2.08
2018-03-09T01:44:53.058Z,1.27
2018-03-09T01:47:22.081Z,1.83
2018-03-09T01:49:50.241Z,1.00
2018-03-09T01:52:30.921Z,3.35
2018-03-09T01:54:59.184Z,1.52
2018-03-09T01:57:27.354Z,1.62
2018-03-09T01:59:56.300Z,2.55
2018-03-09T02:02:24.429Z,1.12
2018-03-09T02:04:52.544Z,2.17
2018-03-09T02:07:21.578Z,3.03
2018-03-09T02:09:50.529Z,1.73
2018-03-09T02:12:19.420Z,2.08
2018-03-09T02:14:48.347Z,2.20
2018-03-09T02:17:17.204Z,2.37
2018-03-09T02:19:46.082Z,1.95
2018-03-09T02:22:14.299Z,1.67
2018-03-09T02:24:43.297Z,1.40
2018-03-09T02:27:11.388Z,4.28
2018-03-09T02:29:39.533Z,5.65
2018-03-09T02:32:07.625Z,4.40
2018-03-09T02:34:35.746Z,3.47
2018-03-09T02:37:04.614Z,2.50
2018-03-09T02:39:34.247Z,1.45
2018-03-09T02:42:03.116Z,5.70
2018-03-09T02:44:32.004Z,2.05
2018-03-09T02:47:00.893Z,4.97
2018-03-09T02:49:29.783Z,2.78
2018-03-09T02:51:59.400Z,1.60
2018-03-09T02:54:28.275Z,2.00
2018-03-09T02:56:56.494Z,2.20
2018-03-09T02:59:25.385Z,2.12
2018-03-09T03:01:54.229Z,1.58
2018-03-09T03:04:23.113Z,1.93
2018-03-09T03:06:51.237Z,1.80
2018-03-09T03:09:19.360Z,1.98
2018-03-09T03:11:48.294Z,1.70
2018-03-09T03:14:17.184Z,3.37
2018-03-09T03:16:46.048Z,2.25
2018-03-09T03:19:14.934Z,2.87
2018-03-09T03:21:43.850Z,1.87
2018-03-09T03:24:12.741Z,2.53
2018-03-09T03:26:41.617Z,2.08
2018-03-09T03:29:09.902Z,2.47
2018-03-09T03:31:38.749Z,3.58
2018-03-09T03:34:07.652Z,2.75
2018-03-09T03:36:36.621Z,1.10
2018-03-09T03:39:04.854Z,1.77
2018-03-09T03:41:32.972Z,1.40
2018-03-09T03:44:01.141Z,1.52
2018-03-09T03:46:29.264Z,2.62
2018-03-09T03:48:57.441Z,2.70
2018-03-09T03:51:25.530Z,2.12
2018-03-09T03:53:53.646Z,1.62
2018-03-09T03:56:22.529Z,1.98
2018-03-09T03:58:51.454Z,3.25
2018-03-09T04:01:19.616Z,2.20
2018-03-09T04:03:47.741Z,1.57
2018-03-09T04:06:15.970Z,1.73
2018-03-09T04:08:44.949Z,3.15
2018-03-09T04:11:13.904Z,1.90
2018-03-09T04:13:42.024Z,2.58
2018-03-09T04:16:10.122Z,2.83
2018-03-09T04:18:38.340Z,2.73
2018-03-09T04:21:07.208Z,2.97
2018-03-09T04:23:35.349Z,2.40
2018-03-09T04:26:03.499Z,3.33
2018-03-09T04:28:32.491Z,3.58
2018-03-09T04:31:01.481Z,2.90
2018-03-09T04:33:30.340Z,2.47
2018-03-09T04:35:59.234Z,5.75
2018-03-09T04:38:28.119Z,3.60
2018-03-09T04:40:57.039Z,3.58
2018-03-09T04:43:25.902Z,5.62
2018-03-09T04:45:54.788Z,3.15
2018-03-09T04:48:23.672Z,5.97
2018-03-09T04:50:52.809Z,4.15
2018-03-09T04:53:21.045Z,6.05
2018-03-09T04:55:50.066Z,4.95
2018-03-09T04:58:19.056Z,5.03
2018-03-09T05:00:48.005Z,3.03
2018-03-09T05:03:16.892Z,2.27
2018-03-09T05:05:45.109Z,2.65
2018-03-09T05:08:13.285Z,2.10
2018-03-09T05:10:41.454Z,3.05
2018-03-09T05:13:10.549Z,2.95
2018-03-09T05:15:39.436Z,3.40
2018-03-09T05:18:08.334Z,3.30
2018-03-09T05:20:36.430Z,3.53
2018-03-09T05:23:04.595Z,2.67
2018-03-09T05:25:32.694Z,4.10
2018-03-09T05:28:00.793Z,4.45
2018-03-09T05:30:28.930Z,5.68
2018-03-09T05:32:57.053Z,5.43
2018-03-09T05:35:25.176Z,3.80
2018-03-09T05:37:53.325Z,4.60
2018-03-09T05:40:21.482Z,4.75
2018-03-09T05:42:49.614Z,4.00
2018-03-09T05:45:18.518Z,3.00
2018-03-09T05:47:46.674Z,5.23
2018-03-09T05:50:15.590Z,2.30
2018-03-09T05:52:44.581Z,3.37
2018-03-09T05:55:13.470Z,4.43
2018-03-09T05:57:42.428Z,2.05
2018-03-09T06:00:11.309Z,3.03
2018-03-09T06:02:40.197Z,2.50
2018-03-09T06:05:08.336Z,3.97
2018-03-09T06:07:36.589Z,3.87
2018-03-09T06:10:04.758Z,3.97
2018-03-09T06:12:33.613Z,3.45
2018-03-09T06:15:02.598Z,6.05
2018-03-09T06:17:30.787Z,3.80
2018-03-09T06:19:59.676Z,6.22
2018-03-09T06:22:28.588Z,4.68
2018-03-09T06:24:57.476Z,4.85
2018-03-09T06:27:26.470Z,2.15
2018-03-09T06:29:55.359Z,4.25
2018-03-09T06:32:24.260Z,2.60
2018-03-09T06:34:52.468Z,4.45
2018-03-09T06:37:20.629Z,3.97
2018-03-09T06:39:48.832Z,4.93
2018-03-09T06:42:17.770Z,5.07
2018-03-09T06:44:45.928Z,2.65
2018-03-09T06:47:14.789Z,7.72
2018-03-09T06:49:43.685Z,3.90
2018-03-09T06:52:11.827Z,6.82
2018-03-09T06:54:39.955Z,4.90
2018-03-09T06:57:08.089Z,2.70
2018-03-09T06:59:36.965Z,3.03
2018-03-09T07:02:05.877Z,3.45
2018-03-09T07:04:33.982Z,5.65
2018-03-09T07:07:02.125Z,6.72
2018-03-09T07:09:31.029Z,4.15
2018-03-09T07:11:59.116Z,3.72
2018-03-09T07:14:27.241Z,3.03
2018-03-09T07:16:56.120Z,2.47
2018-03-09T07:19:24.333Z,3.00
2018-03-09T07:21:53.323Z,4.28
2018-03-09T07:24:22.213Z,3.05
2018-03-09T07:26:50.385Z,3.10
2018-03-09T07:29:19.233Z,2.78
2018-03-09T07:31:48.131Z,2.00
2018-03-09T07:34:17.221Z,2.60
2018-03-09T07:36:45.330Z,3.65
2018-03-09T07:39:13.916Z,2.10
2018-03-09T07:41:42.032Z,2.67
2018-03-09T07:44:10.154Z,3.70
2018-03-09T07:46:38.296Z,2.12
2018-03-09T07:49:07.183Z,2.10
2018-03-09T07:51:36.054Z,2.37
2018-03-09T07:54:04.996Z,3.17
2018-03-09T07:56:33.089Z,2.60
2018-03-09T07:59:01.197Z,1.75
2018-03-09T08:01:30.092Z,3.17
2018-03-09T08:03:58.974Z,2.60
2018-03-09T08:06:28.603Z,1.85
2018-03-09T08:08:57.464Z,4.62
2018-03-09T08:11:25.624Z,1.50
2018-03-09T08:13:53.749Z,1.35
2018-03-09T08:16:21.869Z,2.53
2018-03-09T08:18:50.142Z,2.27
2018-03-09T08:21:19.008Z,3.00
2018-03-09T08:23:47.104Z,1.98
2018-03-09T08:26:15.242Z,1.87
2018-03-09T08:28:43.412Z,1.42
2018-03-09T08:31:11.518Z,1.85
2018-03-09T08:33:39.618Z,3.83
2018-03-09T08:36:07.773Z,1.45
2018-03-09T08:38:36.693Z,2.30
2018-03-09T08:41:04.806Z,1.37
2018-03-09T08:43:32.961Z,3.37
2018-03-09T08:46:01.107Z,1.77
2018-03-09T08:48:29.997Z,3.30
2018-03-09T08:50:58.125Z,1.35
2018-03-09T08:53:26.297Z,1.20
2018-03-09T08:55:58.488Z,3.30
2018-03-09T08:58:26.682Z,1.15
2018-03-09T09:00:54.853Z,1.45
2018-03-09T09:03:23.006Z,2.77
2018-03-09T09:05:51.103Z,1.92
2018-03-09T09:08:19.250Z,2.10
2018-03-09T09:10:47.379Z,1.55
2018-03-09T09:13:15.506Z,5.70
2018-03-09T09:15:43.616Z,5.15
2018-03-09T09:18:11.755Z,5.43
2018-03-09T09:20:39.877Z,3.35
2018-03-09T09:23:08.811Z,1.42
2018-03-09T09:25:37.085Z,2.20
2018-03-09T09:28:05.258Z,1.05
2018-03-09T09:30:33.371Z,3.58
2018-03-09T09:33:01.480Z,2.40
2018-03-09T09:35:30.382Z,2.70
2018-03-09T09:37:58.516Z,3.08
2018-03-09T09:40:27.414Z,5.65
2018-03-09T09:42:55.561Z,3.53
2018-03-09T09:45:23.734Z,4.03
2018-03-09T09:47:51.924Z,1.97
2018-03-09T09:50:20.017Z,3.28
2018-03-09T09:52:48.157Z,3.97
2018-03-09T09:55:17.054Z,2.00
2018-03-09T09:57:45.971Z,3.20
2018-03-09T10:00:14.127Z,4.35
2018-03-09T10:02:42.282Z,4.00
2018-03-09T10:05:11.190Z,2.35
2018-03-09T10:07:40.093Z,2.80
2018-03-09T10:10:08.211Z,7.47
2018-03-09T10:12:36.361Z,4.10
2018-03-09T10:15:04.513Z,3.12
2018-03-09T10:17:32.645Z,1.67
2018-03-09T10:20:01.559Z,2.90
2018-03-09T10:22:30.424Z,2.92
2018-03-09T10:24:59.363Z,3.55
2018-03-09T10:27:27.481Z,3.12
2018-03-09T10:29:55.601Z,3.25
2018-03-09T10:32:23.764Z,7.80
2018-03-09T10:34:51.918Z,2.65
2018-03-09T10:37:20.020Z,1.70
2018-03-09T10:39:48.150Z,5.82
2018-03-09T10:42:17.085Z,2.30
2018-03-09T10:44:45.184Z,1.73
2018-03-09T10:47:13.427Z,4.00
2018-03-09T10:49:41.556Z,4.85
2018-03-09T10:52:10.453Z,1.83
2018-03-09T10:54:39.379Z,2.55
2018-03-09T10:57:07.482Z,2.33
2018-03-09T10:59:35.629Z,0.80
2018-03-09T11:02:03.755Z,6.97
2018-03-09T11:04:31.965Z,2.30
2018-03-09T11:07:00.073Z,4.25
2018-03-09T11:09:28.227Z,1.85
2018-03-09T11:11:56.375Z,6.63
2018-03-09T11:14:24.484Z,3.72
2018-03-09T11:16:52.634Z,2.03
2018-03-09T11:19:20.796Z,4.50
2018-03-09T11:21:48.962Z,3.00
2018-03-09T11:24:17.066Z,2.83
2018-03-09T11:26:45.223Z,3.85
2018-03-09T11:29:13.479Z,3.37
2018-03-09T11:31:41.588Z,4.40
2018-03-09T11:34:09.732Z,6.90
2018-03-09T11:36:37.878Z,4.43
2018-03-09T11:39:06.013Z,3.92
2018-03-09T11:41:34.130Z,3.42
2018-03-09T11:44:02.277Z,7.12
2018-03-09T11:46:30.482Z,3.45
2018-03-09T11:48:58.601Z,2.30
2018-03-09T11:51:26.740Z,4.70
2018-03-09T11:53:55.002Z,3.75
2018-03-09T11:56:23.165Z,6.75
2018-03-09T11:58:51.310Z,5.00
2018-03-09T12:01:20.333Z,1.50
2018-03-09T12:03:48.506Z,2.90
2018-03-09T12:06:16.857Z,1.83
2018-03-09T12:08:45.735Z,4.23
2018-03-09T12:11:14.659Z,8.13
2018-03-09T12:13:42.790Z,2.72
2018-03-09T12:16:11.685Z,5.93
2018-03-09T12:18:40.578Z,2.10
2018-03-09T12:21:09.475Z,1.67
2018-03-09T12:23:38.384Z,6.50
2018-03-09T12:26:06.501Z,3.58
2018-03-09T12:28:34.655Z,3.28
2018-03-09T12:31:02.802Z,2.97
2018-03-09T12:33:30.918Z,2.30
2018-03-09T12:35:59.073Z,3.17
2018-03-09T12:38:27.210Z,2.45
2018-03-09T12:40:55.390Z,2.45
2018-03-09T12:43:23.558Z,3.05
2018-03-09T12:45:51.692Z,4.15
2018-03-09T12:48:20.621Z,2.20
2018-03-09T12:50:48.715Z,2.70
2018-03-09T12:53:16.870Z,6.28
2018-03-09T12:55:45.006Z,2.75
2018-03-09T12:58:13.156Z,3.90
2018-03-09T13:00:42.049Z,4.70
2018-03-09T13:03:10.189Z,1.93
2018-03-09T13:05:38.326Z,1.83
2018-03-09T13:08:06.481Z,3.08
2018-03-09T13:10:35.390Z,3.67
2018-03-09T13:13:05.384Z,2.37
2018-03-09T13:15:36.117Z,3.30
2018-03-09T13:18:06.822Z,3.73
2018-03-09T13:20:35.052Z,4.62
2018-03-09T13:23:03.173Z,3.93
2018-03-09T13:25:31.321Z,3.50
2018-03-09T13:27:59.455Z,2.47
2018-03-09T13:30:27.602Z,3.23
2018-03-09T13:32:56.505Z,6.37
2018-03-09T13:35:24.644Z,1.70
2018-03-09T13:37:52.789Z,2.03
2018-03-09T13:40:21.763Z,3.00
2018-03-09T13:42:49.878Z,6.77
2018-03-09T13:45:18.025Z,3.20
2018-03-09T13:47:46.150Z,3.70
2018-03-09T13:50:14.291Z,2.57
2018-03-09T13:52:42.421Z,3.50
2018-03-09T13:55:10.591Z,1.80
2018-03-09T13:57:38.725Z,2.83
2018-03-09T14:00:06.865Z,4.77
2018-03-09T14:02:34.984Z,1.53
2018-03-09T14:05:03.150Z,4.23
2018-03-09T14:07:32.073Z,3.30
2018-03-09T14:10:00.196Z,3.00
2018-03-09T14:12:29.131Z,2.67
2018-03-09T14:14:57.308Z,2.40
2018-03-09T14:17:25.446Z,2.40
2018-03-09T14:19:53.570Z,3.00
2018-03-09T14:22:21.831Z,2.73
2018-03-09T14:24:49.934Z,3.00
2018-03-09T14:27:18.071Z,3.20
2018-03-09T14:29:46.217Z,2.83
2018-03-09T14:32:14.353Z,1.87
2018-03-09T14:34:42.494Z,3.50
2018-03-09T14:37:10.630Z,1.80
2018-03-09T14:39:39.540Z,2.03
2018-03-09T14:42:07.665Z,3.20
2018-03-09T14:44:36.603Z,1.83
2018-03-09T14:47:04.738Z,1.93
2018-03-09T14:49:33.634Z,2.97
2018-03-09T14:52:02.564Z,2.13
2018-03-09T14:54:30.735Z,2.05
2018-03-09T14:56:58.883Z,2.10
2018-03-09T14:59:27.026Z,4.40
2018-03-09T15:01:55.921Z,5.70
2018-03-09T15:04:24.856Z,2.33
2018-03-09T15:06:52.971Z,8.60
2018-03-09T15:09:21.125Z,3.90
2018-03-09T15:11:50.082Z,3.17
2018-03-09T15:14:18.211Z,2.83
2018-03-09T15:16:46.346Z,22.83
2018-03-09T15:19:14.494Z,6.87
2018-03-09T15:21:42.713Z,2.12
2018-03-09T15:24:10.817Z,3.70
2018-03-09T15:26:38.973Z,2.90
2018-03-09T15:29:07.186Z,2.73
2018-03-09T15:31:35.369Z,2.70
2018-03-09T15:34:09.367Z,1.63
2018-03-09T15:36:37.489Z,3.87
2018-03-09T15:39:12.265Z,3.10
2018-03-09T15:41:40.374Z,2.65
2018-03-09T15:44:08.535Z,3.03
2018-03-09T15:46:36.790Z,3.10
2018-03-09T15:49:04.921Z,3.53
2018-03-09T15:51:33.852Z,4.62
2018-03-09T15:54:01.982Z,5.25
2018-03-09T15:56:30.920Z,3.62
2018-03-09T15:58:59.076Z,1.83
2018-03-09T16:01:27.206Z,1.58
2018-03-09T16:03:55.329Z,2.00
2018-03-09T16:06:24.315Z,2.25
2018-03-09T16:08:52.474Z,4.18
2018-03-09T16:11:21.486Z,2.78
2018-03-09T16:13:49.651Z,3.00
2018-03-09T16:16:17.798Z,3.03
2018-03-09T16:18:46.702Z,1.73
2018-03-09T16:21:14.853Z,2.87
2018-03-09T16:23:43.025Z,4.28
2018-03-09T16:26:11.951Z,3.17
2018-03-09T16:28:40.078Z,2.30
2018-03-09T16:31:09.115Z,2.97
2018-03-09T16:33:37.249Z,4.60
2018-03-09T16:36:06.149Z,2.70
2018-03-09T16:38:35.059Z,4.55
2018-03-09T16:41:03.224Z,3.10
2018-03-09T16:43:31.331Z,3.53
2018-03-09T16:45:59.581Z,3.22
2018-03-09T16:48:27.754Z,2.20
2018-03-09T16:50:55.974Z,2.00
2018-03-09T16:53:24.117Z,2.55
2018-03-09T16:55:52.351Z,1.73
2018-03-09T16:58:20.502Z,1.50
2018-03-09T17:00:49.407Z,1.45
2018-03-09T17:03:18.417Z,2.73
2018-03-09T17:05:46.570Z,5.32
2018-03-09T17:08:15.480Z,3.00
2018-03-09T17:10:43.633Z,3.40
2018-03-09T17:13:11.802Z,6.07
2018-03-09T17:15:40.728Z,6.80
2018-03-09T17:18:08.868Z,5.03
2018-03-09T17:20:37.014Z,2.10
2018-03-09T17:23:05.183Z,2.60
2018-03-09T17:25:33.305Z,2.00
2018-03-09T17:28:01.476Z,2.70
2018-03-09T17:30:29.613Z,2.35
2018-03-09T17:32:58.512Z,2.27
2018-03-09T17:35:26.653Z,3.40
2018-03-09T17:37:54.877Z,3.37
2018-03-09T17:40:23.780Z,3.00
2018-03-09T17:42:51.935Z,6.20
2018-03-09T17:45:20.076Z,2.80
2018-03-09T17:47:48.972Z,2.20
2018-03-09T17:50:17.906Z,2.35
2018-03-09T17:52:46.060Z,3.20
2018-03-09T17:55:14.778Z,5.07
2018-03-09T17:57:44.440Z,3.15
2018-03-09T18:00:12.631Z,2.60
2018-03-09T18:02:40.802Z,2.60
2018-03-09T18:05:08.981Z,6.50
2018-03-09T18:07:38.507Z,4.07
2018-03-09T18:10:06.768Z,3.60
2018-03-09T18:12:34.936Z,4.45
2018-03-09T18:15:03.077Z,4.30
2018-03-09T18:17:31.980Z,5.90
2018-03-09T18:20:00.181Z,10.82
2018-03-09T18:22:28.332Z,5.28
2018-03-09T18:24:56.598Z,4.87
2018-03-09T18:27:24.765Z,3.30
2018-03-09T18:29:53.110Z,3.90
2018-03-09T18:32:21.273Z,7.90
2018-03-09T18:34:49.416Z,5.62
2018-03-09T18:37:17.571Z,4.25
2018-03-09T18:39:46.486Z,7.12
2018-03-09T18:42:14.650Z,6.15
2018-03-09T18:44:43.478Z,4.65
2018-03-09T18:47:12.506Z,7.47
2018-03-09T18:49:41.983Z,6.93
2018-03-09T18:52:10.195Z,8.60
2018-03-09T18:54:38.320Z,8.80
2018-03-09T18:57:07.257Z,10.35
2018-03-09T18:59:35.412Z,8.88
2018-03-09T19:02:04.134Z,27.83
2018-03-09T19:04:32.290Z,18.00
2018-03-09T19:07:00.448Z,19.70
2018-03-09T19:09:28.623Z,17.15
2018-03-09T19:11:56.762Z,11.88
2018-03-09T19:14:24.910Z,11.27
2018-03-09T19:16:53.049Z,11.52
2018-03-09T19:19:21.216Z,9.05
2018-03-09T19:21:49.364Z,6.80
2018-03-09T19:24:17.566Z,7.85
2018-03-09T19:26:45.740Z,5.35
2018-03-09T19:29:13.903Z,5.75
2018-03-09T19:31:42.022Z,4.68
2018-03-09T19:34:10.186Z,6.05
2018-03-09T19:36:38.344Z,7.55
2018-03-09T19:39:06.481Z,4.37
2018-03-09T19:41:34.633Z,9.13
2018-03-09T19:44:02.767Z,5.82
2018-03-09T19:46:30.931Z,3.50
2018-03-09T19:48:59.891Z,4.10
2018-03-09T19:51:28.011Z,6.12
2018-03-09T19:53:56.186Z,6.22
2018-03-09T19:56:24.352Z,4.53
2018-03-09T19:58:52.586Z,3.00
2018-03-09T20:01:20.727Z,6.18
2018-03-09T20:03:49.667Z,4.37
2018-03-09T20:06:17.847Z,4.60
2018-03-09T20:08:46.019Z,5.05
2018-03-09T20:11:14.135Z,4.25
2018-03-09T20:13:43.080Z,5.65
2018-03-09T20:16:12.029Z,4.20
2018-03-09T20:18:40.963Z,6.25
2018-03-09T20:21:09.169Z,5.43
2018-03-09T20:23:37.316Z,5.32
2018-03-09T20:26:05.500Z,5.22
2018-03-09T20:28:33.668Z,3.90
2018-03-09T20:31:02.003Z,4.37
2018-03-09T20:33:30.146Z,4.93
2018-03-09T20:35:59.068Z,5.10
2018-03-09T20:38:27.240Z,5.22
2018-03-09T20:40:55.406Z,5.22
2018-03-09T20:43:23.660Z,5.37
2018-03-09T20:45:52.711Z,4.87
2018-03-09T20:48:20.935Z,5.10
2018-03-09T20:50:49.859Z,6.30
2018-03-09T20:53:17.996Z,3.62
2018-03-09T20:55:46.138Z,5.55
2018-03-09T20:58:14.271Z,5.53
2018-03-09T21:00:42.438Z,5.53
2018-03-09T21:03:10.601Z,7.37
2018-03-09T21:05:38.743Z,4.85
2018-03-09T21:08:07.660Z,5.30
2018-03-09T21:10:35.782Z,7.15
2018-03-09T21:13:03.949Z,9.45
2018-03-09T21:15:33.713Z,8.18
2018-03-09T21:18:01.982Z,10.80
2018-03-09T21:20:30.122Z,6.37
2018-03-09T21:22:59.571Z,7.50
2018-03-09T21:25:27.738Z,7.22
2018-03-09T21:27:55.829Z,8.38
2018-03-09T21:30:24.075Z,7.10
2018-03-09T21:32:52.258Z,6.80
2018-03-09T21:35:20.454Z,9.55
2018-03-09T21:37:48.592Z,13.02
2018-03-09T21:40:16.766Z,15.40
2018-03-09T21:42:44.911Z,10.50
2018-03-09T21:45:13.842Z,9.52
2018-03-09T21:47:42.009Z,12.40
2018-03-09T21:50:10.112Z,11.57
2018-03-09T21:52:38.293Z,18.60
2018-03-09T21:55:06.440Z,16.33
2018-03-09T21:57:34.645Z,11.95
2018-03-09T22:00:02.749Z,8.63
2018-03-09T22:02:30.923Z,13.83
2018-03-09T22:04:59.058Z,10.00
2018-03-09T22:07:28.002Z,9.40
2018-03-09T22:09:56.157Z,6.18
2018-03-09T22:12:24.295Z,7.87
2018-03-09T22:14:53.276Z,11.10
2018-03-09T22:17:21.441Z,10.85
2018-03-09T22:19:49.632Z,7.87
2018-03-09T22:22:18.531Z,11.12
2018-03-09T22:24:47.532Z,9.88
2018-03-09T22:27:16.456Z,9.50
2018-03-09T22:29:44.609Z,11.25
2018-03-09T22:32:12.837Z,8.70
2018-03-09T22:34:40.888Z,11.40
2018-03-09T22:37:09.795Z,8.95
2018-03-09T22:39:37.968Z,7.60
2018-03-09T22:42:06.865Z,14.48
2018-03-09T22:44:34.983Z,11.50
2018-03-09T22:47:03.127Z,7.93
2018-03-09T22:49:32.035Z,8.73
2018-03-09T22:52:00.185Z,9.90
2018-03-09T22:54:29.069Z,4.97
2018-03-09T22:56:57.205Z,9.15
2018-03-09T22:59:25.342Z,10.95
2018-03-09T23:01:53.522Z,11.93
2018-03-09T23:04:21.671Z,9.80
2018-03-09T23:06:49.810Z,11.93
2018-03-09T23:09:17.915Z,11.20
2018-03-09T23:11:46.054Z,9.93
2018-03-09T23:14:14.959Z,8.32
2018-03-09T23:16:43.860Z,7.43
2018-03-09T23:19:12.726Z,6.00
2018-03-09T23:21:41.649Z,6.05
2018-03-09T23:24:10.537Z,6.32
2018-03-09T23:26:38.633Z,7.60
2018-03-09T23:29:06.782Z,6.62
2018-03-09T23:31:34.901Z,13.80
2018-03-09T23:34:03.003Z,9.97
2018-03-09T23:36:31.172Z,8.05
2018-03-09T23:39:00.084Z,8.38
2018-03-09T23:41:28.949Z,9.90
2018-03-09T23:43:57.871Z,9.70
2018-03-09T23:46:26.034Z,9.82
2018-03-09T23:48:54.916Z,8.03
2018-03-09T23:51:23.097Z,9.10
2018-03-09T23:53:52.009Z,9.55
2018-03-09T23:56:20.160Z,7.65
2018-03-09T23:58:48.260Z,8.25
